General Lavalle, Argentina
Current Conditions -  °F | °C
As of 12:00 PM on Thursday 30 Oct 2014 (Local Time) from SAZM Reporting Station
Clear Clear  
Wind Chill: 20°   Ceiling: Unl
Heat Index: 20°   Visibility: 6mi
Dew Point:   Wind: 21mph
Humidity: 40%   Direction: 290°WNW
Pressure: 29.77"   Gusts: NA
Location:  36.4°S, 56.97°W
Report Text: SAZM 301500Z 29018KT CAVOK 20/06 Q1008
Loading
Personal Weather Stations






























Interactive Weather Map
Tropical Storm Tracking
New forecast layout! Learn more

10-Day Weather Forecast

Advertisements
Track Severe Weather on mobile